Time;durP1;ratioP1;P1;durP2;ratioP2;P2;SDS_P1;SDS_P2;PMS_P1;PMS_P2;Temp;Humidity;BMP_temperature;BMP_pressure;BME280_temperature;BME280_humidity;BME280_pressure;Samples;Min_cycle;Max_cycle;Signal;HPM_P1;HPM_P2
2023/04/17 00:01:34;;;;;;;34.58;32.08;;;11.90;99.90;;;;;;5149394;28;20030;-75
2023/04/17 00:04:09;;;;;;;35.65;33.13;;;12.20;99.90;;;;;;5148916;28;20048;-75
2023/04/17 00:06:42;;;;;;;36.25;33.75;;;12.00;99.90;;;;;;5149164;28;20065;-76
2023/04/17 00:09:13;;;;;;;33.67;30.98;;;12.00;99.90;;;;;;5166567;28;20343;-75
2023/04/17 00:11:44;;;;;;;33.30;30.73;;;12.00;99.90;;;;;;5166430;28;20029;-75
2023/04/17 00:14:14;;;;;;;32.08;29.85;;;12.00;99.90;;;;;;5166404;28;20057;-76
2023/04/17 00:16:45;;;;;;;33.90;31.50;;;11.80;99.90;;;;;;5166074;28;20037;-76
2023/04/17 00:19:16;;;;;;;34.60;32.22;;;12.00;99.90;;;;;;5166403;28;20026;-75
2023/04/17 00:21:47;;;;;;;34.65;31.77;;;11.90;99.90;;;;;;5166105;28;20025;-74
2023/04/17 00:24:18;;;;;;;36.03;33.40;;;12.10;99.90;;;;;;5148568;28;20466;-75
2023/04/17 00:26:49;;;;;;;34.40;32.17;;;12.30;99.90;;;;;;5166156;28;20764;-76
2023/04/17 00:29:20;;;;;;;34.40;31.45;;;12.40;99.90;;;;;;5165984;28;20030;-76
2023/04/17 00:31:51;;;;;;;35.25;32.75;;;12.40;99.90;;;;;;5166115;28;20030;-76
2023/04/17 00:34:22;;;;;;;36.17;33.67;;;12.40;99.90;;;;;;5165809;28;20101;-74
2023/04/17 00:36:52;;;;;;;34.95;32.67;;;12.40;99.90;;;;;;5165503;28;20042;-76
2023/04/17 00:39:24;;;;;;;33.75;31.45;;;12.50;99.90;;;;;;5147487;28;20081;-75
2023/04/17 00:41:55;;;;;;;34.47;32.03;;;12.60;99.90;;;;;;5165732;28;20058;-76
2023/04/17 00:44:26;;;;;;;35.38;32.78;;;12.40;99.90;;;;;;5147796;28;20026;-76
2023/04/17 00:46:57;;;;;;;35.13;32.83;;;12.40;99.90;;;;;;5164801;28;20134;-75
2023/04/17 00:49:28;;;;;;;33.45;31.13;;;12.70;99.90;;;;;;5165342;28;20101;-75
2023/04/17 00:52:00;;;;;;;38.53;35.80;;;12.60;99.90;;;;;;5164739;28;20050;-76
2023/04/17 00:54:31;;;;;;;35.58;32.97;;;12.60;99.90;;;;;;5165118;28;20382;-76
2023/04/17 00:57:02;;;;;;;36.55;33.92;;;12.50;99.90;;;;;;5164927;28;20041;-75
2023/04/17 00:59:35;;;;;;;37.90;35.47;;;12.60;99.90;;;;;;5147828;28;20031;-75
2023/04/17 01:02:06;;;;;;;37.75;35.10;;;12.60;99.90;;;;;;5159862;28;20027;-75
2023/04/17 01:04:37;;;;;;;36.40;33.90;;;12.60;99.90;;;;;;5144150;28;20474;-75
2023/04/17 01:07:08;;;;;;;38.08;35.45;;;12.50;99.90;;;;;;5126565;28;20033;-75
2023/04/17 01:09:39;;;;;;;37.83;35.42;;;12.60;99.90;;;;;;5144258;28;20081;-75
2023/04/17 01:12:22;;;;;;;38.78;35.97;;;12.60;99.90;;;;;;5145301;28;20386;-75
2023/04/17 01:14:54;;;;;;;39.30;36.60;;;12.60;99.90;;;;;;5145657;28;20077;-74
2023/04/17 01:17:25;;;;;;;38.50;35.92;;;12.30;99.90;;;;;;5128115;28;20046;-75
2023/04/17 01:19:56;;;;;;;39.78;36.80;;;12.50;99.90;;;;;;5145279;28;20050;-74
2023/04/17 01:22:27;;;;;;;38.78;36.08;;;12.60;99.90;;;;;;5145548;28;20038;-74
2023/04/17 01:24:58;;;;;;;40.05;37.30;;;12.60;99.90;;;;;;5145250;28;20491;-75
2023/04/17 01:27:29;;;;;;;39.50;36.67;;;12.70;99.90;;;;;;5127733;28;20071;-75
2023/04/17 01:30:00;;;;;;;37.38;35.05;;;12.70;99.90;;;;;;5127821;28;20081;-75
2023/04/17 01:32:31;;;;;;;37.97;35.22;;;12.50;99.90;;;;;;5144940;28;20038;-74
2023/04/17 01:35:03;;;;;;;38.97;36.38;;;12.70;99.90;;;;;;5127918;28;20034;-75
2023/04/17 01:37:34;;;;;;;37.10;34.65;;;12.60;99.90;;;;;;5145312;28;20395;-75
2023/04/17 01:40:06;;;;;;;38.00;35.13;;;12.70;99.90;;;;;;5145438;28;20366;-75
2023/04/17 01:42:36;;;;;;;35.85;33.10;;;12.60;99.90;;;;;;5145298;28;20026;-74
2023/04/17 01:45:08;;;;;;;37.75;34.90;;;12.60;99.90;;;;;;5144758;28;20463;-75
2023/04/17 01:47:40;;;;;;;36.53;34.03;;;12.80;99.90;;;;;;5145048;28;20400;-75
2023/04/17 01:50:11;;;;;;;34.15;31.25;;;12.70;99.90;;;;;;5145353;28;20038;-75
2023/04/17 01:52:42;;;;;;;34.20;31.92;;;12.60;99.90;;;;;;5148465;28;20121;-75
2023/04/17 01:55:13;;;;;;;36.80;34.38;;;12.50;99.90;;;;;;5148712;28;20063;-74
2023/04/17 01:57:44;;;;;;;34.67;32.20;;;12.50;99.90;;;;;;5148274;28;20112;-74
2023/04/17 02:00:15;;;;;;;36.03;33.22;;;12.60;99.90;;;;;;5131088;28;20042;-75
2023/04/17 02:02:46;;;;;;;37.28;34.20;;;12.60;99.90;;;;;;5148109;28;20094;-75
2023/04/17 02:05:17;;;;;;;34.47;31.90;;;12.50;99.90;;;;;;5148701;28;20085;-75
2023/04/17 02:07:50;;;;;;;33.28;30.88;;;12.70;99.90;;;;;;5148381;28;20035;-75
2023/04/17 02:10:21;;;;;;;33.35;31.10;;;12.70;99.90;;;;;;5148612;28;20053;-75
2023/04/17 02:12:51;;;;;;;33.42;30.92;;;12.50;99.90;;;;;;5148125;28;20031;-75
2023/04/17 02:15:22;;;;;;;35.67;33.05;;;12.50;99.90;;;;;;5148497;28;20029;-75
2023/04/17 02:17:53;;;;;;;35.58;32.97;;;12.70;99.90;;;;;;5148161;28;20051;-74
2023/04/17 02:20:24;;;;;;;36.28;33.70;;;12.40;99.90;;;;;;5148018;28;20030;-74
2023/04/17 02:22:55;;;;;;;34.03;31.65;;;12.60;99.90;;;;;;5148336;28;20372;-75
2023/04/17 02:25:27;;;;;;;33.83;31.33;;;12.70;99.90;;;;;;5148579;28;20082;-75
2023/04/17 02:27:58;;;;;;;35.90;33.35;;;12.60;99.90;;;;;;5148265;28;20364;-75
2023/04/17 02:30:29;;;;;;;34.38;31.88;;;12.60;99.90;;;;;;5155098;28;20080;-75
2023/04/17 02:33:00;;;;;;;35.00;32.38;;;12.60;99.90;;;;;;5168310;28;20487;-75
2023/04/17 02:35:31;;;;;;;36.40;33.55;;;12.70;99.90;;;;;;5168252;28;20425;-75
2023/04/17 02:38:02;;;;;;;34.50;31.75;;;12.60;99.90;;;;;;5150665;28;20034;-75
2023/04/17 02:40:33;;;;;;;34.00;31.38;;;12.60;99.90;;;;;;5150733;28;20045;-75
2023/04/17 02:43:04;;;;;;;34.75;32.25;;;12.40;99.90;;;;;;5167802;28;20058;-75
2023/04/17 02:45:35;;;;;;;34.58;31.92;;;12.50;99.90;;;;;;5142259;28;20030;-75
2023/04/17 02:48:06;;;;;;;33.40;30.83;;;12.40;99.90;;;;;;5153559;28;20099;-75
2023/04/17 02:50:37;;;;;;;35.17;32.78;;;12.40;99.90;;;;;;5153895;28;20123;-75
2023/04/17 02:53:08;;;;;;;35.63;32.90;;;12.40;99.90;;;;;;5154488;28;20045;-75
2023/04/17 02:55:39;;;;;;;34.75;32.35;;;12.60;99.90;;;;;;5155084;28;20570;-75
2023/04/17 02:58:10;;;;;;;36.80;34.38;;;12.70;99.90;;;;;;5157443;28;20254;-75
2023/04/17 03:00:41;;;;;;;38.47;35.83;;;12.80;99.90;;;;;;5157391;28;20014;-74
2023/04/17 03:03:11;;;;;;;40.83;37.92;;;12.50;99.90;;;;;;5159824;28;20038;-75
2023/04/17 03:05:42;;;;;;;41.00;38.13;;;12.50;99.90;;;;;;5137682;28;20023;-76
2023/04/17 03:08:13;;;;;;;41.22;38.45;;;12.30;99.90;;;;;;5148864;28;20031;-75
2023/04/17 03:10:44;;;;;;;39.28;36.58;;;12.60;99.90;;;;;;5146401;28;20034;-75
2023/04/17 03:13:15;;;;;;;37.55;34.60;;;12.60;99.90;;;;;;5129624;28;20474;-75
2023/04/17 03:15:46;;;;;;;37.10;34.50;;;12.70;99.90;;;;;;5147369;28;20031;-75
2023/04/17 03:18:16;;;;;;;36.35;33.65;;;12.80;99.90;;;;;;5146884;28;20057;-75
2023/04/17 03:20:47;;;;;;;39.50;36.50;;;12.70;99.90;;;;;;5146833;28;20374;-75
2023/04/17 03:23:18;;;;;;;42.33;38.83;;;12.70;99.90;;;;;;5146916;28;20119;-75
2023/04/17 03:25:50;;;;;;;37.95;35.17;;;12.60;99.90;;;;;;5129602;28;20037;-74
2023/04/17 03:28:22;;;;;;;40.60;37.70;;;12.60;99.90;;;;;;5146922;28;20019;-75
2023/04/17 03:30:56;;;;;;;36.83;34.28;;;12.60;99.90;;;;;;5147172;28;20086;-75
2023/04/17 03:33:27;;;;;;;39.08;36.30;;;12.60;99.90;;;;;;5147096;28;20023;-75
2023/04/17 03:35:58;;;;;;;35.63;32.83;;;12.40;99.90;;;;;;5129644;28;20038;-75
2023/04/17 03:38:29;;;;;;;36.30;33.70;;;12.50;99.90;;;;;;5146910;28;20035;-75
2023/04/17 03:41:00;;;;;;;36.92;34.13;;;12.50;99.90;;;;;;5146638;28;20027;-75
2023/04/17 03:43:31;;;;;;;36.28;33.67;;;12.60;99.90;;;;;;5146695;28;20538;-75
2023/04/17 03:46:02;;;;;;;37.10;34.40;;;12.40;99.90;;;;;;5146662;28;20023;-75
2023/04/17 03:48:32;;;;;;;37.70;34.80;;;12.60;99.90;;;;;;5146966;28;20081;-75
2023/04/17 03:51:03;;;;;;;39.45;36.33;;;12.60;99.90;;;;;;5145912;28;20047;-75
2023/04/17 03:53:34;;;;;;;39.13;36.10;;;12.60;99.90;;;;;;5129552;28;20039;-75
2023/04/17 03:56:05;;;;;;;39.13;36.20;;;12.60;99.90;;;;;;5146822;28;20490;-75
2023/04/17 03:58:36;;;;;;;45.58;42.28;;;12.50;99.90;;;;;;5146562;28;20043;-75
2023/04/17 04:01:09;;;;;;;46.78;43.38;;;12.50;99.90;;;;;;5146457;28;20023;-75
2023/04/17 04:03:40;;;;;;;48.92;45.13;;;12.60;99.90;;;;;;5146631;28;20035;-76
2023/04/17 04:06:11;;;;;;;48.17;44.30;;;12.40;99.90;;;;;;5129437;28;20023;-74
2023/04/17 04:08:42;;;;;;;44.70;41.40;;;12.40;99.90;;;;;;5129211;28;20034;-75
2023/04/17 04:11:12;;;;;;;49.50;45.78;;;12.50;99.90;;;;;;5146577;28;20386;-75
2023/04/17 04:13:43;;;;;;;46.42;43.08;;;12.60;99.90;;;;;;5145679;28;20031;-75
2023/04/17 04:16:14;;;;;;;44.40;41.20;;;12.50;99.90;;;;;;5146270;28;20031;-76
2023/04/17 04:18:45;;;;;;;41.70;38.20;;;12.50;99.90;;;;;;5146519;28;20475;-75
2023/04/17 04:21:16;;;;;;;44.55;41.05;;;12.50;99.90;;;;;;5145846;28;20031;-75
2023/04/17 04:23:48;;;;;;;42.15;38.83;;;12.60;99.90;;;;;;5128974;28;20043;-75
2023/04/17 04:26:20;;;;;;;41.28;38.17;;;12.50;99.90;;;;;;5146236;28;20134;-77
2023/04/17 04:28:52;;;;;;;41.75;38.63;;;12.40;99.90;;;;;;5146411;28;20054;-75
2023/04/17 04:31:24;;;;;;;43.45;39.92;;;12.50;99.90;;;;;;5146207;28;20019;-74
2023/04/17 04:33:57;;;;;;;45.67;42.38;;;12.50;99.90;;;;;;5145860;28;20134;-76
2023/04/17 04:36:28;;;;;;;41.08;38.28;;;12.70;99.90;;;;;;5145486;28;20027;-75
2023/04/17 04:38:59;;;;;;;38.97;36.15;;;12.60;99.90;;;;;;5145904;28;20406;-76
2023/04/17 04:41:32;;;;;;;38.08;35.08;;;12.80;99.90;;;;;;5128509;28;20027;-75
2023/04/17 04:44:03;;;;;;;33.50;31.10;;;12.70;99.90;;;;;;5146018;28;20023;-75
2023/04/17 04:46:34;;;;;;;34.58;32.08;;;12.60;99.90;;;;;;5146205;28;20103;-75
2023/04/17 04:49:05;;;;;;;35.38;32.75;;;12.60;99.90;;;;;;5128694;28;20027;-76
2023/04/17 04:51:37;;;;;;;33.65;31.33;;;12.70;99.90;;;;;;5128200;28;20502;-75
2023/04/17 04:54:08;;;;;;;36.70;34.00;;;12.60;99.90;;;;;;5146244;28;20031;-75
2023/04/17 04:56:39;;;;;;;37.88;35.38;;;12.60;99.90;;;;;;5145535;28;20402;-75
2023/04/17 04:59:10;;;;;;;36.70;33.70;;;12.70;99.90;;;;;;5146025;28;20073;-76
2023/04/17 05:01:41;;;;;;;36.70;34.03;;;12.60;99.90;;;;;;5145615;28;20109;-76
2023/04/17 05:04:12;;;;;;;37.28;34.70;;;12.70;99.90;;;;;;5145755;28;20054;-75
2023/04/17 05:06:43;;;;;;;35.30;32.75;;;12.70;99.90;;;;;;5145700;28;20512;-75
2023/04/17 05:09:14;;;;;;;38.50;36.05;;;12.80;99.90;;;;;;5145643;28;20042;-76
2023/04/17 05:11:45;;;;;;;39.08;36.05;;;12.80;99.90;;;;;;5145849;28;20085;-76
2023/04/17 05:14:16;;;;;;;40.58;37.47;;;12.60;99.90;;;;;;5145914;28;20023;-75
2023/04/17 05:16:47;;;;;;;40.25;37.20;;;12.70;99.90;;;;;;5145583;28;20074;-75
2023/04/17 05:19:18;;;;;;;38.72;35.97;;;12.70;99.90;;;;;;5145591;28;20027;-75
2023/04/17 05:21:49;;;;;;;40.83;38.03;;;12.70;99.90;;;;;;5145852;28;20031;-75
2023/04/17 05:24:19;;;;;;;39.65;36.75;;;12.70;99.90;;;;;;5145319;28;20368;-76
2023/04/17 05:26:50;;;;;;;42.88;39.92;;;12.80;99.90;;;;;;5148696;28;20037;-75
2023/04/17 05:29:23;;;;;;;37.67;34.78;;;13.00;99.90;;;;;;5149471;28;20058;-75
2023/04/17 05:31:54;;;;;;;37.17;34.20;;;13.10;99.90;;;;;;5132173;28;20062;-75
2023/04/17 05:34:25;;;;;;;36.17;33.53;;;13.10;99.90;;;;;;5131836;28;20030;-76
2023/04/17 05:36:56;;;;;;;37.10;34.20;;;13.10;99.90;;;;;;5149402;28;20038;-75
2023/04/17 05:39:27;;;;;;;34.95;32.13;;;13.10;99.90;;;;;;5149091;28;20026;-75
2023/04/17 05:41:57;;;;;;;37.70;34.88;;;13.20;99.90;;;;;;5149012;28;20022;-75
2023/04/17 05:44:29;;;;;;;38.28;35.55;;;13.20;99.90;;;;;;5149227;28;20041;-74
2023/04/17 05:47:00;;;;;;;37.97;35.05;;;13.40;99.90;;;;;;5149209;28;20035;-75
2023/04/17 05:49:30;;;;;;;39.63;36.92;;;13.50;99.90;;;;;;5148765;28;20033;-76
2023/04/17 05:52:01;;;;;;;38.65;35.60;;;13.60;99.90;;;;;;5131417;28;20070;-75
2023/04/17 05:54:32;;;;;;;36.25;33.28;;;13.60;99.90;;;;;;5149025;28;20095;-75
2023/04/17 05:57:03;;;;;;;36.80;33.83;;;13.80;99.90;;;;;;5149158;28;20050;-75
2023/04/17 05:59:34;;;;;;;36.25;33.53;;;13.90;99.90;;;;;;5148588;28;20038;-76
2023/04/17 06:02:06;;;;;;;33.22;30.60;;;14.00;99.90;;;;;;5149096;28;20534;-76
2023/04/17 06:04:37;;;;;;;37.97;34.85;;;13.80;99.90;;;;;;5148972;28;20027;-75
2023/04/17 06:07:09;;;;;;;35.78;32.92;;;14.00;99.90;;;;;;5148900;28;20027;-76
2023/04/17 06:09:40;;;;;;;40.97;37.53;;;14.00;99.90;;;;;;5148715;28;20101;-76
2023/04/17 06:12:14;;;;;;;32.83;30.58;;;13.90;99.90;;;;;;5131157;28;20031;-75
2023/04/17 06:14:45;;;;;;;37.17;34.28;;;13.80;99.90;;;;;;5148538;28;20105;-76
2023/04/17 06:17:16;;;;;;;35.97;33.17;;;13.90;99.90;;;;;;5148312;28;20150;-75
2023/04/17 06:19:47;;;;;;;37.70;34.72;;;13.80;99.90;;;;;;5148637;28;20027;-74
2023/04/17 06:22:18;;;;;;;35.75;32.83;;;13.70;99.90;;;;;;5131144;28;20520;-75
2023/04/17 06:24:48;;;;;;;34.08;31.27;;;13.80;99.90;;;;;;5130872;28;20070;-76
2023/04/17 06:27:19;;;;;;;36.33;33.35;;;14.00;99.90;;;;;;5131046;28;20023;-77
2023/04/17 06:29:50;;;;;;;34.58;32.13;;;14.10;99.90;;;;;;5130984;28;20154;-75
2023/04/17 06:32:21;;;;;;;34.38;31.88;;;14.10;99.90;;;;;;5148005;28;20478;-75
2023/04/17 06:34:52;;;;;;;35.08;32.35;;;14.00;99.90;;;;;;5131051;28;20038;-75
2023/04/17 06:37:23;;;;;;;36.13;33.28;;;13.80;99.90;;;;;;5147173;28;20039;-75
2023/04/17 06:39:54;;;;;;;40.10;36.75;;;13.60;99.90;;;;;;5148184;28;20035;-74
2023/04/17 06:42:24;;;;;;;43.65;40.38;;;13.60;99.90;;;;;;5148076;28;20022;-76
2023/04/17 06:44:55;;;;;;;43.20;40.00;;;13.50;99.90;;;;;;5148217;28;20031;-75
2023/04/17 06:47:26;;;;;;;43.88;40.38;;;13.40;99.90;;;;;;5147874;28;20054;-76
2023/04/17 06:49:58;;;;;;;43.35;40.20;;;13.50;99.90;;;;;;5147581;28;20038;-75
2023/04/17 06:52:29;;;;;;;42.70;39.47;;;13.70;99.90;;;;;;5147919;28;20062;-76
2023/04/17 06:55:01;;;;;;;39.63;36.63;;;13.70;99.90;;;;;;5147604;28;20023;-75
2023/04/17 06:57:32;;;;;;;43.10;39.75;;;13.80;99.90;;;;;;5147544;28;20058;-75
2023/04/17 07:00:04;;;;;;;38.67;35.53;;;13.80;99.90;;;;;;5147621;28;20101;-75
2023/04/17 07:02:35;;;;;;;35.45;32.75;;;13.70;99.90;;;;;;5147877;28;20394;-76
2023/04/17 07:05:06;;;;;;;36.40;33.63;;;13.70;99.90;;;;;;5129737;28;20019;-75
2023/04/17 07:07:38;;;;;;;35.00;31.88;;;13.80;99.90;;;;;;5147012;28;20023;-76
2023/04/17 07:10:09;;;;;;;35.78;32.95;;;13.80;99.90;;;;;;5131517;28;20446;-76
2023/04/17 07:12:40;;;;;;;37.97;35.10;;;13.70;99.90;;;;;;5151549;28;20062;-76
2023/04/17 07:15:11;;;;;;;38.50;35.45;;;13.70;99.90;;;;;;5130359;28;20133;-76
2023/04/17 07:17:42;;;;;;;39.58;36.45;;;13.90;99.90;;;;;;5147572;28;20039;-75
2023/04/17 07:20:13;;;;;;;36.40;33.47;;;13.70;99.90;;;;;;5147701;28;20034;-76
2023/04/17 07:22:44;;;;;;;36.22;33.63;;;13.80;99.90;;;;;;5148098;28;20114;-75
2023/04/17 07:25:15;;;;;;;37.15;34.22;;;13.90;99.90;;;;;;5147297;28;20398;-75
2023/04/17 07:27:46;;;;;;;35.95;33.30;;;14.10;99.90;;;;;;5160152;28;20037;-77
2023/04/17 07:30:17;;;;;;;31.48;28.88;;;14.10;99.90;;;;;;5167775;28;20031;-76
2023/04/17 07:32:47;;;;;;;31.42;28.88;;;14.10;99.90;;;;;;5167763;28;20030;-76
2023/04/17 07:35:18;;;;;;;33.63;30.92;;;14.20;99.90;;;;;;5167723;28;20038;-76
2023/04/17 07:37:49;;;;;;;33.13;30.63;;;14.20;99.90;;;;;;5167659;28;20031;-78
2023/04/17 07:40:20;;;;;;;30.95;28.20;;;14.00;99.90;;;;;;5150209;28;20027;-77
2023/04/17 07:42:51;;;;;;;31.92;29.20;;;14.10;99.90;;;;;;5150198;28;20180;-77
2023/04/17 07:45:22;;;;;;;32.60;29.98;;;14.10;99.90;;;;;;5167493;28;20022;-77
2023/04/17 07:47:53;;;;;;;30.70;28.02;;;14.20;99.90;;;;;;5167358;28;20485;-79
2023/04/17 07:50:24;;;;;;;26.13;24.05;;;14.40;99.90;;;;;;5149898;28;20037;-78
2023/04/17 07:52:55;;;;;;;29.17;26.27;;;14.20;99.90;;;;;;5149681;28;20050;-77
2023/04/17 07:55:26;;;;;;;30.67;27.85;;;13.80;99.90;;;;;;5167437;28;20524;-77
2023/04/17 07:57:57;;;;;;;30.10;27.42;;;13.80;99.90;;;;;;5151934;28;20073;-77
2023/04/17 08:00:32;;;;;;;31.25;28.67;;;13.60;99.90;;;;;;5147139;28;20026;-78
2023/04/17 08:03:03;;;;;;;34.78;31.50;;;13.30;99.90;;;;;;5129807;28;20027;-80
2023/04/17 08:05:34;;;;;;;34.58;31.80;;;13.30;99.90;;;;;;5129439;28;20038;-81
2023/04/17 08:08:05;;;;;;;35.40;32.65;;;13.50;99.90;;;;;;5129602;28;20082;-80
2023/04/17 08:10:36;;;;;;;34.25;31.65;;;13.50;99.90;;;;;;5147257;28;20035;-79
2023/04/17 08:13:07;;;;;;;33.75;31.23;;;13.50;99.90;;;;;;5146965;28;20018;-80
2023/04/17 08:15:39;;;;;;;33.78;30.85;;;13.60;99.90;;;;;;5153765;28;20034;-81
2023/04/17 08:18:10;;;;;;;32.05;29.40;;;13.60;99.90;;;;;;5166792;28;20090;-80
2023/04/17 08:20:41;;;;;;;32.78;30.00;;;13.50;99.90;;;;;;5149214;28;20026;-77
2023/04/17 08:23:12;;;;;;;34.60;32.00;;;13.50;99.90;;;;;;5167041;28;20065;-76
2023/04/17 08:25:44;;;;;;;36.55;33.53;;;13.60;99.90;;;;;;5149557;28;20057;-76
2023/04/17 08:28:15;;;;;;;39.63;36.47;;;13.40;99.90;;;;;;5166920;28;20458;-76
2023/04/17 08:30:46;;;;;;;36.42;33.63;;;13.50;99.90;;;;;;5149597;28;20030;-78
2023/04/17 08:33:17;;;;;;;39.72;36.60;;;13.50;99.90;;;;;;5149415;28;20030;-77
2023/04/17 08:35:48;;;;;;;35.47;32.65;;;13.50;99.90;;;;;;5149190;28;20027;-77
2023/04/17 08:38:19;;;;;;;36.65;33.90;;;13.70;99.90;;;;;;5148937;28;20080;-77
2023/04/17 08:40:58;;;;;;;35.17;32.20;;;13.60;99.90;;;;;;5166722;28;20421;-79
2023/04/17 08:43:30;;;;;;;35.90;32.92;;;13.70;99.90;;;;;;5148890;28;20039;-80
2023/04/17 08:46:02;;;;;;;33.30;30.30;;;14.10;99.90;;;;;;5166455;28;20507;-79
2023/04/17 08:48:33;;;;;;;32.58;29.80;;;14.10;99.90;;;;;;5158363;28;20028;-80
2023/04/17 08:51:04;;;;;;;31.27;28.52;;;14.10;99.90;;;;;;5148769;28;20552;-80
2023/04/17 08:53:35;;;;;;;30.63;28.00;;;14.10;99.90;;;;;;5149022;28;20030;-79
2023/04/17 08:56:06;;;;;;;34.30;31.50;;;14.10;99.90;;;;;;5132763;28;20030;-81
2023/04/17 08:58:37;;;;;;;33.97;31.40;;;14.30;99.90;;;;;;5128839;28;20089;-77
2023/04/17 09:01:15;;;;;;;31.23;28.67;;;14.60;99.90;;;;;;5145910;28;20050;-79
2023/04/17 09:03:47;;;;;;;30.42;27.98;;;14.50;99.90;;;;;;5160882;28;20026;-79
2023/04/17 09:06:18;;;;;;;30.13;27.60;;;14.60;99.90;;;;;;5164511;28;20026;-80
2023/04/17 09:09:03;;;;;;;30.73;28.25;;;14.70;99.90;;;;;;5156423;28;20029;-81
2023/04/17 09:11:34;;;;;;;29.77;27.38;;;14.70;99.90;;;;;;5157799;28;20022;-80
2023/04/17 09:14:05;;;;;;;29.17;26.48;;;14.90;99.90;;;;;;5147391;28;20027;-81
2023/04/17 09:16:53;;;;;;;28.10;25.65;;;14.90;99.90;;;;;;5145900;28;20521;-80
2023/04/17 09:19:24;;;;;;;28.73;26.10;;;15.10;99.90;;;;;;5145974;28;20054;-79
2023/04/17 09:21:55;;;;;;;27.25;24.75;;;15.10;99.90;;;;;;5145777;28;20447;-80
2023/04/17 09:24:33;;;;;;;31.60;28.75;;;15.20;99.90;;;;;;5161416;28;20117;-76
2023/04/17 09:27:25;;;;;;;31.33;28.45;;;15.20;99.90;;;;;;5166369;28;20493;-76
2023/04/17 09:30:01;;;;;;;31.90;29.13;;;15.20;99.90;;;;;;5166642;28;20422;-76
2023/04/17 09:32:33;;;;;;;28.13;26.02;;;15.30;99.90;;;;;;5166381;28;20027;-77
2023/04/17 09:35:04;;;;;;;30.42;27.70;;;15.60;99.90;;;;;;5166117;28;20351;-79
2023/04/17 09:37:58;;;;;;;28.85;26.60;;;15.90;99.90;;;;;;5148458;28;20035;-79
2023/04/17 09:40:38;;;;;;;26.75;25.05;;;16.30;99.90;;;;;;5148593;28;20490;-79
2023/04/17 09:43:10;;;;;;;26.30;24.27;;;16.40;99.90;;;;;;5148693;28;20033;-77
2023/04/17 09:45:43;;;;;;;23.33;21.42;;;16.60;99.90;;;;;;5166229;28;20073;-78
2023/04/17 09:48:14;;;;;;;27.75;25.85;;;16.70;99.90;;;;;;5165991;28;20061;-78
2023/04/17 09:50:46;;;;;;;23.95;22.25;;;16.80;99.90;;;;;;5157547;28;20027;-77
2023/04/17 09:53:18;;;;;;;26.92;25.02;;;16.60;99.90;;;;;;5145850;28;20038;-76
2023/04/17 09:55:52;;;;;;;25.58;23.88;;;16.30;99.90;;;;;;5146166;28;20023;-79
2023/04/17 09:58:23;;;;;;;24.25;22.15;;;16.50;99.90;;;;;;5151878;28;20452;-76
2023/04/17 10:00:54;;;;;;;23.05;21.45;;;16.90;99.90;;;;;;5166146;28;20027;-76
2023/04/17 10:03:26;;;;;;;23.48;21.83;;;17.10;99.90;;;;;;5166143;28;20034;-80
2023/04/17 10:05:56;;;;;;;21.08;19.63;;;16.80;99.90;;;;;;5165757;28;20031;-79
2023/04/17 10:08:27;;;;;;;21.58;20.17;;;17.00;99.90;;;;;;5145613;28;20022;-78
2023/04/17 10:11:06;;;;;;;23.42;21.92;;;17.30;99.90;;;;;;5159708;28;20030;-77
2023/04/17 10:13:39;;;;;;;22.15;20.50;;;17.10;99.90;;;;;;5150731;28;20029;-78
2023/04/17 10:16:10;;;;;;;24.25;22.60;;;16.90;99.90;;;;;;5153994;28;20422;-77
2023/04/17 10:18:41;;;;;;;22.60;21.10;;;17.30;99.90;;;;;;5149542;28;20501;-76
2023/04/17 10:21:21;;;;;;;22.02;20.27;;;17.80;99.90;;;;;;5149330;28;20035;-76
2023/04/17 10:23:52;;;;;;;22.45;20.90;;;18.00;99.90;;;;;;5149323;28;20039;-76
2023/04/17 10:26:28;;;;;;;20.75;19.35;;;17.90;99.90;;;;;;5131853;28;20570;-76
2023/04/17 10:28:59;;;;;;;20.98;19.38;;;18.20;99.90;;;;;;5149103;28;20023;-78
2023/04/17 10:32:07;;;;;;;22.95;21.17;;;18.10;99.90;;;;;;5131649;28;20037;-77
2023/04/17 10:34:38;;;;;;;21.90;20.30;;;18.30;99.90;;;;;;5155461;28;20030;-76
2023/04/17 10:37:14;;;;;;;24.60;22.95;;;18.60;99.90;;;;;;5169008;28;20027;-77
2023/04/17 10:39:59;;;;;;;24.30;22.70;;;18.40;99.90;;;;;;5152028;28;20062;-78
2023/04/17 10:42:31;;;;;;;22.38;20.50;;;18.10;99.90;;;;;;5168970;28;20045;-76
2023/04/17 10:45:07;;;;;;;24.35;22.55;;;17.80;99.90;;;;;;5169263;28;20030;-76
2023/04/17 10:47:38;;;;;;;22.60;20.88;;;17.60;99.90;;;;;;5151534;28;20491;-78
2023/04/17 10:50:10;;;;;;;21.67;20.10;;;17.30;99.90;;;;;;5168913;28;20026;-77
2023/04/17 10:52:43;;;;;;;25.88;23.77;;;17.30;99.90;;;;;;5168837;28;20061;-78
2023/04/17 10:55:19;;;;;;;23.83;21.83;;;17.10;99.90;;;;;;5133846;28;20490;-77
2023/04/17 10:58:03;;;;;;;24.67;22.73;;;17.20;99.90;;;;;;5148705;28;20027;-78
2023/04/17 11:00:48;;;;;;;22.58;20.98;;;17.10;99.90;;;;;;5134643;28;20038;-77
2023/04/17 11:03:22;;;;;;;25.85;23.88;;;17.20;99.90;;;;;;5168843;28;20038;-77
2023/04/17 11:05:53;;;;;;;26.30;23.90;;;17.50;99.90;;;;;;5151182;28;20385;-78
2023/04/17 11:08:24;;;;;;;26.60;24.38;;;17.40;99.90;;;;;;5168629;28;20057;-77
2023/04/17 11:10:55;;;;;;;26.30;24.15;;;17.40;99.90;;;;;;5168487;28;20108;-78
2023/04/17 11:13:31;;;;;;;28.05;25.90;;;17.40;99.90;;;;;;5151005;28;20080;-78
2023/04/17 11:16:03;;;;;;;25.50;23.70;;;17.20;99.90;;;;;;5168596;28;20065;-77
2023/04/17 11:18:36;;;;;;;24.95;22.95;;;17.40;99.90;;;;;;5168288;28;20030;-77
2023/04/17 11:21:10;;;;;;;25.92;23.65;;;17.50;99.90;;;;;;5168443;28;20031;-78
2023/04/17 11:23:52;;;;;;;25.88;23.88;;;17.50;99.90;;;;;;5168059;28;20030;-77
2023/04/17 11:26:23;;;;;;;27.50;25.45;;;17.20;99.90;;;;;;5168370;28;20025;-77
2023/04/17 11:28:54;;;;;;;27.38;25.05;;;17.00;99.90;;;;;;5168454;28;20027;-77
2023/04/17 11:31:25;;;;;;;27.13;24.92;;;17.10;99.90;;;;;;5168680;28;20030;-78
2023/04/17 11:33:57;;;;;;;26.35;24.25;;;17.20;99.90;;;;;;5168073;28;20378;-78
2023/04/17 11:36:28;;;;;;;26.83;24.35;;;16.40;99.90;;;;;;5147049;28;20015;-77
2023/04/17 11:38:59;;;;;;;28.17;26.05;;;16.80;99.90;;;;;;5150426;28;20041;-77
2023/04/17 11:41:37;;;;;;;28.40;25.75;;;17.20;99.90;;;;;;5167957;28;20030;-77
2023/04/17 11:44:11;;;;;;;30.08;27.92;;;17.40;99.90;;;;;;5167830;28;20037;-76
2023/04/17 11:46:47;;;;;;;28.55;26.38;;;18.20;99.90;;;;;;5165823;28;20145;-76
2023/04/17 11:49:29;;;;;;;29.52;26.83;;;17.90;99.90;;;;;;5148159;28;20027;-77
2023/04/17 11:52:01;;;;;;;27.70;25.15;;;18.20;99.90;;;;;;5147386;28;20043;-77
2023/04/17 11:54:37;;;;;;;28.25;25.75;;;18.10;99.90;;;;;;5147493;28;20030;-76
2023/04/17 11:57:13;;;;;;;25.92;23.52;;;17.70;99.90;;;;;;5129885;28;20046;-76
2023/04/17 11:59:44;;;;;;;27.42;25.02;;;16.80;99.90;;;;;;5147995;28;20035;-77
2023/04/17 12:02:15;;;;;;;28.27;25.88;;;17.40;99.90;;;;;;5147612;28;20037;-77
2023/04/17 12:04:46;;;;;;;25.55;23.20;;;17.50;99.90;;;;;;5147230;28;20034;-77
2023/04/17 12:07:23;;;;;;;24.70;22.58;;;18.20;99.90;;;;;;5142652;28;20469;-76
2023/04/17 12:09:56;;;;;;;25.48;22.85;;;18.10;99.90;;;;;;5167251;28;20022;-77
2023/04/17 12:12:28;;;;;;;24.58;22.42;;;17.70;99.90;;;;;;5149620;28;20034;-76
2023/04/17 12:14:59;;;;;;;25.98;23.95;;;17.30;99.90;;;;;;5167278;28;20022;-77
2023/04/17 12:17:30;;;;;;;24.45;22.02;;;17.30;99.90;;;;;;5167147;28;20037;-81
2023/04/17 12:20:03;;;;;;;22.85;21.10;;;17.30;99.90;;;;;;5149596;28;20026;-79
2023/04/17 12:22:33;;;;;;;23.13;21.08;;;16.60;99.90;;;;;;5167673;28;20081;-79
2023/04/17 12:25:05;;;;;;;24.65;22.75;;;16.90;99.90;;;;;;5149622;28;20358;-79
2023/04/17 12:27:36;;;;;;;24.48;22.48;;;16.90;99.90;;;;;;5167221;28;20037;-80
2023/04/17 12:30:07;;;;;;;24.13;22.33;;;17.30;99.90;;;;;;5167131;28;20026;-81
2023/04/17 12:32:38;;;;;;;22.35;20.45;;;17.60;99.90;;;;;;5166849;28;20026;-76
2023/04/17 12:35:09;;;;;;;24.27;22.15;;;17.40;99.90;;;;;;5166045;28;20029;-77
2023/04/17 12:37:41;;;;;;;24.70;22.35;;;18.00;99.90;;;;;;5149465;28;20113;-77
2023/04/17 12:40:12;;;;;;;21.52;19.77;;;18.30;99.90;;;;;;5166929;28;20358;-76
2023/04/17 12:42:44;;;;;;;20.00;18.30;;;18.60;99.90;;;;;;5167010;28;20058;-76
2023/04/17 12:45:15;;;;;;;22.08;20.08;;;18.00;99.90;;;;;;5149396;28;20025;-75
2023/04/17 12:47:46;;;;;;;24.67;22.50;;;18.00;99.90;;;;;;5166966;28;20034;-75
2023/04/17 12:50:17;;;;;;;22.88;20.95;;;17.80;99.90;;;;;;5166631;28;20037;-76
2023/04/17 12:52:48;;;;;;;23.90;22.02;;;17.30;99.90;;;;;;5166575;28;20062;-75